Time;durP1;ratioP1;P1;durP2;ratioP2;P2;SDS_P1;SDS_P2;PMS_P1;PMS_P2;Temp;Humidity;BMP_temperature;BMP_pressure;BME280_temperature;BME280_humidity;BME280_pressure;Samples;Min_cycle;Max_cycle;Signal;HPM_P1;HPM_P2
2022/12/06 00:02:09;;;;;;;1.40;0.63;;;24.50;47.40;;;;;;5052698;28;20213;-57
2022/12/06 00:04:40;;;;;;;3.08;0.70;;;24.50;47.40;;;;;;5051882;28;20282;-58
2022/12/06 00:07:12;;;;;;;2.40;0.70;;;24.60;47.40;;;;;;5051289;28;20229;-48
2022/12/06 00:09:43;;;;;;;1.40;0.75;;;24.60;47.40;;;;;;5050928;28;20219;-47
2022/12/06 00:12:13;;;;;;;1.13;0.65;;;24.60;47.50;;;;;;5052915;28;20606;-54
2022/12/06 00:14:46;;;;;;;1.58;0.90;;;24.70;47.60;;;;;;5051787;28;20194;-50
2022/12/06 00:17:17;;;;;;;1.55;0.77;;;24.70;47.60;;;;;;5052691;28;20279;-52
2022/12/06 00:19:51;;;;;;;1.67;0.57;;;24.70;47.60;;;;;;5052579;28;20585;-50
2022/12/06 00:22:21;;;;;;;4.53;0.85;;;24.70;47.60;;;;;;5052914;28;20278;-51
2022/12/06 00:24:52;;;;;;;1.90;0.88;;;24.70;47.50;;;;;;5052751;28;20206;-53
2022/12/06 00:27:24;;;;;;;2.03;0.75;;;24.80;47.40;;;;;;5052129;28;20273;-49
2022/12/06 00:29:56;;;;;;;3.80;1.08;;;24.80;47.40;;;;;;5051917;28;20302;-48
2022/12/06 00:32:27;;;;;;;1.63;0.80;;;24.80;47.30;;;;;;5051561;28;20724;-47
2022/12/06 00:34:58;;;;;;;2.05;0.70;;;24.80;47.30;;;;;;5052644;28;20199;-48
2022/12/06 00:37:29;;;;;;;2.10;0.90;;;24.80;47.40;;;;;;5051538;28;20195;-47
2022/12/06 00:40:00;;;;;;;1.40;0.80;;;24.80;47.30;;;;;;5051856;28;20216;-48
2022/12/06 00:42:31;;;;;;;1.95;0.90;;;24.90;47.40;;;;;;5051578;28;20199;-55
2022/12/06 00:45:04;;;;;;;3.53;1.23;;;24.90;47.40;;;;;;5051272;28;20198;-54
2022/12/06 00:47:35;;;;;;;2.13;1.10;;;24.90;47.40;;;;;;5051209;28;20223;-55
2022/12/06 00:50:07;;;;;;;6.97;1.60;;;24.90;47.40;;;;;;5052022;28;20635;-56
2022/12/06 00:52:37;;;;;;;4.50;1.38;;;25.00;47.50;;;;;;5051351;28;20209;-47
2022/12/06 00:55:09;;;;;;;3.45;1.35;;;24.90;47.50;;;;;;5051839;28;20452;-51
2022/12/06 00:57:40;;;;;;;3.95;1.20;;;25.00;47.50;;;;;;5052305;28;20286;-52
2022/12/06 01:00:14;;;;;;;2.75;1.15;;;25.00;47.50;;;;;;5050946;28;20311;-54
2022/12/06 01:02:45;;;;;;;2.80;1.08;;;25.00;47.60;;;;;;5051767;28;20192;-47
2022/12/06 01:05:16;;;;;;;3.38;1.50;;;25.00;47.60;;;;;;5051138;28;20200;-49
2022/12/06 01:07:46;;;;;;;2.78;1.20;;;25.00;47.60;;;;;;5045049;28;20216;-48
2022/12/06 01:10:17;;;;;;;2.80;1.00;;;25.10;47.60;;;;;;5050027;28;20302;-60
2022/12/06 01:12:48;;;;;;;3.50;1.30;;;25.10;47.60;;;;;;5050876;28;20294;-49
2022/12/06 01:15:22;;;;;;;2.15;1.00;;;25.10;47.50;;;;;;5051226;28;20195;-50
2022/12/06 01:17:53;;;;;;;1.98;0.93;;;25.10;47.50;;;;;;5051126;28;20206;-49
2022/12/06 01:20:23;;;;;;;1.67;0.90;;;25.10;47.40;;;;;;5051583;28;20207;-51
2022/12/06 01:22:54;;;;;;;3.50;1.13;;;25.10;47.40;;;;;;5051763;28;20191;-52
2022/12/06 01:25:25;;;;;;;2.88;1.13;;;25.20;47.20;;;;;;5051177;28;20187;-50
2022/12/06 01:27:56;;;;;;;3.13;1.40;;;25.20;47.10;;;;;;5022478;28;20716;-47
2022/12/06 01:30:29;;;;;;;3.95;1.00;;;25.20;47.10;;;;;;5047235;28;20226;-50
2022/12/06 01:33:00;;;;;;;2.30;1.10;;;25.20;47.00;;;;;;5050022;28;20200;-53
2022/12/06 01:35:30;;;;;;;2.30;0.95;;;25.20;47.00;;;;;;5050182;28;20568;-48
2022/12/06 01:38:01;;;;;;;3.47;1.15;;;25.20;46.90;;;;;;5049669;28;20207;-50
2022/12/06 01:40:37;;;;;;;2.65;1.13;;;25.20;47.00;;;;;;5049714;28;20235;-57
2022/12/06 01:43:12;;;;;;;2.75;0.90;;;25.20;47.10;;;;;;5050118;28;20693;-53
2022/12/06 01:45:45;;;;;;;2.45;1.00;;;25.20;47.10;;;;;;5030125;28;20553;-51
2022/12/06 01:48:16;;;;;;;2.70;1.20;;;25.20;47.20;;;;;;5030918;28;20564;-55
2022/12/06 01:50:47;;;;;;;2.22;0.80;;;25.20;47.20;;;;;;5050770;28;20227;-54
2022/12/06 01:53:18;;;;;;;1.52;0.82;;;25.30;47.20;;;;;;5050026;28;20555;-47
2022/12/06 01:55:49;;;;;;;2.35;1.00;;;25.30;47.20;;;;;;5049575;28;20203;-55
2022/12/06 01:58:24;;;;;;;2.30;1.20;;;25.30;47.10;;;;;;5048570;28;20670;-48
2022/12/06 02:00:57;;;;;;;3.05;0.93;;;25.30;47.00;;;;;;5049732;28;20219;-48
2022/12/06 02:03:32;;;;;;;2.47;1.40;;;25.30;47.00;;;;;;5049487;28;20206;-51
2022/12/06 02:06:03;;;;;;;3.38;1.02;;;25.30;46.90;;;;;;5049706;28;20206;-48
2022/12/06 02:08:34;;;;;;;2.40;1.10;;;25.30;46.90;;;;;;5039386;28;20239;-51
2022/12/06 02:11:06;;;;;;;1.67;0.80;;;25.30;46.90;;;;;;5048999;28;20230;-50
2022/12/06 02:13:37;;;;;;;2.35;0.90;;;25.30;46.90;;;;;;5049895;28;20200;-53
2022/12/06 02:16:29;;;;;;;2.22;1.00;;;25.30;46.80;;;;;;5049906;28;20199;-47
2022/12/06 02:19:11;;;;;;;1.10;0.73;;;25.30;46.90;;;;;;5049155;28;20203;-49
2022/12/06 02:21:50;;;;;;;2.38;0.98;;;25.30;46.90;;;;;;5049738;28;20203;-48
2022/12/06 02:24:43;;;;;;;2.65;0.90;;;25.40;47.00;;;;;;5049356;28;20202;-49
2022/12/06 02:27:45;;;;;;;2.53;1.23;;;25.40;47.10;;;;;;5050209;28;20238;-49
2022/12/06 02:30:19;;;;;;;2.67;0.77;;;25.40;47.00;;;;;;5050136;28;20207;-52
2022/12/06 02:32:58;;;;;;;2.25;0.90;;;25.40;47.10;;;;;;5049408;28;20191;-51
2022/12/06 02:35:36;;;;;;;1.30;0.90;;;25.40;47.00;;;;;;5049719;28;20849;-48
2022/12/06 02:38:09;;;;;;;2.25;1.00;;;25.40;47.00;;;;;;5049658;28;20541;-51
2022/12/06 02:40:44;;;;;;;3.20;1.02;;;25.40;46.90;;;;;;5049196;28;20223;-48
2022/12/06 02:43:18;;;;;;;1.20;0.80;;;25.50;46.90;;;;;;5048715;28;20195;-47
2022/12/06 02:45:54;;;;;;;1.55;0.77;;;25.50;46.90;;;;;;5048958;28;20183;-48
2022/12/06 02:48:28;;;;;;;1.10;0.73;;;25.50;46.90;;;;;;5049988;28;20202;-56
2022/12/06 02:51:01;;;;;;;1.05;0.80;;;25.50;46.90;;;;;;5049264;28;20223;-52
2022/12/06 02:53:35;;;;;;;1.85;0.98;;;25.50;46.80;;;;;;5049416;28;20218;-57
2022/12/06 02:56:06;;;;;;;2.22;0.77;;;25.50;46.80;;;;;;5032088;28;20204;-49
2022/12/06 02:58:38;;;;;;;1.33;0.80;;;25.50;46.90;;;;;;5033408;28;20203;-48
2022/12/06 03:01:14;;;;;;;2.03;0.95;;;25.50;46.90;;;;;;5053343;28;20614;-61
2022/12/06 03:04:02;;;;;;;1.80;0.82;;;25.50;46.80;;;;;;5052397;28;20826;-60
2022/12/06 03:07:00;;;;;;;2.22;1.05;;;25.50;46.80;;;;;;5051154;28;20231;-60
2022/12/06 03:09:51;;;;;;;2.50;0.90;;;25.50;46.70;;;;;;5039287;28;20215;-59
2022/12/06 03:12:30;;;;;;;1.70;1.10;;;25.50;46.70;;;;;;5052816;28;20214;-60
2022/12/06 03:15:12;;;;;;;2.13;0.82;;;25.50;46.50;;;;;;5052700;28;20195;-60
2022/12/06 03:17:48;;;;;;;1.95;0.95;;;25.50;46.50;;;;;;5053487;28;20215;-59
2022/12/06 03:20:24;;;;;;;2.05;0.93;;;25.60;46.60;;;;;;5052032;28;20219;-60
2022/12/06 03:22:59;;;;;;;1.23;0.80;;;25.50;46.40;;;;;;5053315;28;20210;-60
2022/12/06 03:25:30;;;;;;;1.88;0.80;;;25.60;46.50;;;;;;5053101;28;20206;-51
2022/12/06 03:28:03;;;;;;;2.92;0.85;;;25.50;46.40;;;;;;5052406;28;20905;-60
2022/12/06 03:30:35;;;;;;;3.78;1.00;;;25.50;47.00;;;;;;5052410;28;20223;-60
2022/12/06 03:33:07;;;;;;;2.63;0.93;;;25.50;46.10;;;;;;5053183;28;20270;-54
2022/12/06 03:35:40;;;;;;;3.65;1.50;;;25.50;46.20;;;;;;5052440;28;20554;-52
2022/12/06 03:38:14;;;;;;;1.33;0.88;;;25.50;46.20;;;;;;5053220;28;20203;-57
2022/12/06 03:40:49;;;;;;;1.92;1.00;;;25.50;46.20;;;;;;5051874;28;20222;-57
2022/12/06 03:43:20;;;;;;;1.55;1.00;;;25.50;46.30;;;;;;5053036;28;20225;-54
2022/12/06 03:45:55;;;;;;;2.40;1.00;;;25.40;46.10;;;;;;5052561;28;20568;-55
2022/12/06 03:48:31;;;;;;;2.17;1.08;;;25.40;46.10;;;;;;5052640;28;20219;-59
2022/12/06 03:51:06;;;;;;;2.80;1.33;;;25.50;46.80;;;;;;5053096;28;20218;-57
2022/12/06 03:53:45;;;;;;;2.08;1.25;;;25.40;46.10;;;;;;5051611;28;20555;-57
2022/12/06 03:56:16;;;;;;;3.03;1.40;;;25.40;46.10;;;;;;5052283;28;20184;-59
2022/12/06 03:58:47;;;;;;;2.90;1.30;;;25.40;46.10;;;;;;5051764;28;20678;-57
2022/12/06 04:01:18;;;;;;;4.07;1.30;;;25.30;45.90;;;;;;5052125;28;20961;-59
2022/12/06 04:03:49;;;;;;;2.90;1.30;;;25.40;45.90;;;;;;5052975;28;20203;-58
2022/12/06 04:06:21;;;;;;;2.10;1.10;;;25.30;45.80;;;;;;5052064;28;20199;-58
2022/12/06 04:08:52;;;;;;;3.55;1.40;;;25.30;45.80;;;;;;5052560;28;20565;-60
2022/12/06 04:11:23;;;;;;;2.15;1.20;;;25.30;45.80;;;;;;5051662;28;20230;-51
2022/12/06 04:13:54;;;;;;;3.50;1.25;;;25.30;45.90;;;;;;5051657;28;20196;-48
2022/12/06 04:19:17;;;;;;;2.63;1.45;;;25.20;45.90;;;;;;4990957;28;20836;-53
2022/12/06 04:24:36;;;;;;;3.78;1.45;;;25.20;46.00;;;;;;5052092;28;20273;-50
2022/12/06 04:40:58;;;;;;;2.40;1.10;;;25.10;45.70;;;;;;5046979;28;20269;-59
2022/12/06 04:43:42;;;;;;;3.42;1.60;;;25.00;45.80;;;;;;5050196;28;20192;-53
2022/12/06 04:46:14;;;;;;;2.92;1.20;;;25.00;45.80;;;;;;5051274;28;20643;-59
2022/12/06 04:48:45;;;;;;;2.70;1.42;;;24.90;45.80;;;;;;5050482;28;20247;-59
2022/12/06 04:51:15;;;;;;;3.38;1.40;;;24.90;45.80;;;;;;5051332;28;20882;-51
2022/12/06 04:53:48;;;;;;;2.50;1.30;;;24.90;45.80;;;;;;5050462;28;20199;-50
2022/12/06 04:56:19;;;;;;;3.63;1.40;;;24.90;45.90;;;;;;5050149;28;20274;-49
2022/12/06 04:58:50;;;;;;;5.28;1.45;;;24.90;45.90;;;;;;5051472;28;20191;-49
2022/12/06 05:01:21;;;;;;;2.60;1.23;;;24.80;45.90;;;;;;5050475;28;21010;-51
2022/12/06 05:03:52;;;;;;;3.58;1.30;;;24.80;46.00;;;;;;5050914;28;20204;-49
2022/12/06 05:06:22;;;;;;;5.70;1.40;;;24.80;46.00;;;;;;5050227;28;20211;-52
2022/12/06 05:08:55;;;;;;;2.35;1.40;;;24.70;45.90;;;;;;5050958;28;20231;-52
2022/12/06 05:11:26;;;;;;;3.50;1.40;;;24.70;45.90;;;;;;5050436;28;20219;-52
2022/12/06 05:13:57;;;;;;;2.45;1.25;;;24.70;45.90;;;;;;5050701;28;20210;-50
2022/12/06 05:16:28;;;;;;;3.28;1.33;;;24.70;45.90;;;;;;5050712;28;20195;-51
2022/12/06 05:18:59;;;;;;;1.60;1.20;;;24.70;46.00;;;;;;5049310;28;20192;-51
2022/12/06 05:21:29;;;;;;;2.72;1.40;;;24.70;46.00;;;;;;5050591;28;20698;-51
2022/12/06 05:24:02;;;;;;;1.95;1.10;;;24.60;45.90;;;;;;5050027;28;20202;-49
2022/12/06 05:26:33;;;;;;;2.90;1.23;;;24.60;45.90;;;;;;5050379;28;20199;-56
2022/12/06 05:29:04;;;;;;;3.35;1.25;;;24.50;45.90;;;;;;5057455;28;20230;-50
2022/12/06 05:31:35;;;;;;;2.95;1.05;;;24.50;46.60;;;;;;5050189;28;20203;-52
2022/12/06 05:34:05;;;;;;;2.97;1.40;;;24.50;46.00;;;;;;5050206;28;20196;-52
2022/12/06 05:36:36;;;;;;;2.25;1.10;;;24.50;46.10;;;;;;5049874;28;20199;-53
2022/12/06 05:39:09;;;;;;;4.40;1.30;;;24.50;46.10;;;;;;5049119;28;20206;-51
2022/12/06 05:41:39;;;;;;;2.53;1.20;;;24.50;46.10;;;;;;5049800;28;20203;-55
2022/12/06 05:44:12;;;;;;;2.88;1.35;;;24.40;46.00;;;;;;5050276;28;20195;-56
2022/12/06 05:46:42;;;;;;;2.92;1.25;;;24.40;46.10;;;;;;5049773;28;20195;-51
2022/12/06 05:49:13;;;;;;;2.75;1.50;;;24.40;46.10;;;;;;5050603;28;20203;-51
2022/12/06 05:51:44;;;;;;;2.78;1.30;;;24.40;46.10;;;;;;5049679;28;20212;-47
2022/12/06 05:54:16;;;;;;;2.22;1.25;;;24.30;46.00;;;;;;5049530;28;20200;-50
2022/12/06 05:56:47;;;;;;;2.20;1.38;;;24.30;46.10;;;;;;5050030;28;20187;-49
2022/12/06 05:59:18;;;;;;;2.20;1.10;;;24.30;46.20;;;;;;5050867;28;20195;-52
2022/12/06 06:01:49;;;;;;;2.15;1.30;;;24.30;46.20;;;;;;5050588;28;20207;-53
2022/12/06 06:04:20;;;;;;;3.72;1.13;;;24.20;46.20;;;;;;5050805;28;20222;-50
2022/12/06 06:06:51;;;;;;;2.40;1.17;;;24.20;46.20;;;;;;5050517;28;20199;-51
2022/12/06 06:09:23;;;;;;;2.05;0.85;;;24.20;46.30;;;;;;5050296;28;20199;-50
2022/12/06 06:11:54;;;;;;;3.72;1.40;;;24.20;46.30;;;;;;5056133;28;20666;-59
2022/12/06 06:14:25;;;;;;;1.80;1.02;;;24.10;46.30;;;;;;5069859;28;20211;-48
2022/12/06 06:16:56;;;;;;;2.85;1.23;;;24.10;46.30;;;;;;5069750;28;20229;-52
2022/12/06 06:19:27;;;;;;;3.30;1.40;;;24.10;46.30;;;;;;5068611;28;20653;-51
2022/12/06 06:21:58;;;;;;;2.97;1.13;;;24.00;46.30;;;;;;5070223;28;20199;-49
2022/12/06 06:24:36;;;;;;;1.63;1.20;;;24.10;46.40;;;;;;5070811;28;20201;-50
2022/12/06 06:27:07;;;;;;;2.95;1.40;;;24.00;46.30;;;;;;5070567;28;20199;-48
2022/12/06 06:29:38;;;;;;;1.95;1.17;;;24.00;46.40;;;;;;5071826;28;20214;-48
2022/12/06 06:32:09;;;;;;;2.20;1.20;;;24.00;46.40;;;;;;5074453;28;20194;-56
2022/12/06 06:34:40;;;;;;;2.25;1.30;;;24.00;46.40;;;;;;5073490;28;20191;-53
2022/12/06 06:37:10;;;;;;;1.95;1.13;;;23.90;46.40;;;;;;5074032;28;20205;-57
2022/12/06 06:39:43;;;;;;;2.05;1.05;;;23.90;46.50;;;;;;5073960;28;20218;-49
2022/12/06 06:42:13;;;;;;;3.60;1.40;;;23.90;46.50;;;;;;5053972;28;20199;-58
2022/12/06 06:44:44;;;;;;;1.88;1.00;;;23.90;46.50;;;;;;5053732;28;20218;-55
2022/12/06 06:47:15;;;;;;;4.50;1.45;;;23.80;46.50;;;;;;5053612;28;20198;-55
2022/12/06 06:49:46;;;;;;;4.03;1.45;;;23.80;46.50;;;;;;5054555;28;20219;-55
2022/12/06 06:52:16;;;;;;;2.88;1.35;;;23.80;46.60;;;;;;5054511;28;20200;-48
2022/12/06 06:54:49;;;;;;;3.40;1.38;;;23.80;46.60;;;;;;5069889;28;20207;-60
2022/12/06 06:57:20;;;;;;;2.72;1.58;;;23.70;46.50;;;;;;5073861;28;20209;-53
2022/12/06 06:59:50;;;;;;;2.80;1.60;;;23.80;46.60;;;;;;5073813;28;20286;-58
2022/12/06 07:02:21;;;;;;;2.95;1.63;;;23.70;46.50;;;;;;5060080;28;20199;-60
2022/12/06 07:04:52;;;;;;;3.13;1.58;;;23.70;46.50;;;;;;5052866;28;20199;-59
2022/12/06 07:07:24;;;;;;;3.03;1.73;;;23.70;46.60;;;;;;5052605;28;20269;-61
2022/12/06 07:09:56;;;;;;;4.10;1.77;;;23.70;46.60;;;;;;5051963;28;20622;-60
2022/12/06 07:12:27;;;;;;;2.97;1.60;;;23.60;46.60;;;;;;5032948;28;20197;-59
2022/12/06 07:14:58;;;;;;;4.60;1.77;;;23.60;46.60;;;;;;5033121;28;20200;-60
2022/12/06 07:17:29;;;;;;;3.75;1.67;;;23.60;46.70;;;;;;5032745;28;20200;-60
2022/12/06 07:20:00;;;;;;;1.90;1.15;;;23.50;47.30;;;;;;5032796;28;20692;-58
2022/12/06 07:22:31;;;;;;;3.72;2.15;;;23.50;46.70;;;;;;5033282;28;20197;-60
2022/12/06 07:25:04;;;;;;;3.65;1.75;;;23.50;46.80;;;;;;5033432;28;20192;-60
2022/12/06 07:27:37;;;;;;;3.53;1.63;;;23.50;46.80;;;;;;5033212;28;20581;-59
2022/12/06 07:30:09;;;;;;;4.10;1.65;;;23.50;46.80;;;;;;5037215;28;20222;-61
2022/12/06 07:32:39;;;;;;;1.95;1.25;;;23.50;46.80;;;;;;5053483;28;20195;-60
2022/12/06 07:35:11;;;;;;;3.80;1.50;;;23.40;46.70;;;;;;5053177;28;20206;-57
2022/12/06 07:37:45;;;;;;;3.45;1.80;;;23.40;46.70;;;;;;5052757;28;20206;-60
2022/12/06 07:40:19;;;;;;;4.25;1.80;;;23.40;46.70;;;;;;5052115;28;20222;-58
2022/12/06 07:45:37;;;;;;;4.53;1.70;;;23.30;46.70;;;;;;5053361;28;20329;-55
2022/12/06 07:48:10;;;;;;;5.10;1.77;;;23.30;46.70;;;;;;5053002;28;20597;-60
2022/12/06 07:50:41;;;;;;;3.42;1.70;;;23.30;46.80;;;;;;5053179;28;20227;-58
2022/12/06 07:53:12;;;;;;;3.40;1.55;;;23.30;46.80;;;;;;5052925;28;20196;-60
2022/12/06 07:55:44;;;;;;;2.85;1.40;;;23.20;46.80;;;;;;5053436;28;20199;-57
2022/12/06 07:58:15;;;;;;;3.65;1.80;;;23.20;46.80;;;;;;5052553;28;20199;-57
2022/12/06 08:00:46;;;;;;;3.42;1.58;;;23.10;46.80;;;;;;5052278;28;20679;-54
2022/12/06 08:03:16;;;;;;;3.78;1.67;;;23.10;46.90;;;;;;5052693;28;20206;-58
2022/12/06 08:05:56;;;;;;;3.25;1.65;;;23.20;47.00;;;;;;5051945;28;20203;-58
2022/12/06 08:08:27;;;;;;;4.70;2.00;;;23.20;46.90;;;;;;5050707;28;20227;-59
2022/12/06 08:11:01;;;;;;;4.60;2.03;;;23.10;46.90;;;;;;5051726;28;20226;-58
2022/12/06 08:13:32;;;;;;;4.63;1.85;;;23.10;47.00;;;;;;5052526;28;20642;-57
2022/12/06 08:16:06;;;;;;;3.75;2.00;;;23.10;47.00;;;;;;5052161;28;20196;-55
2022/12/06 08:18:36;;;;;;;3.55;2.00;;;23.10;47.10;;;;;;5052700;28;20196;-58
2022/12/06 08:21:08;;;;;;;4.18;2.00;;;23.10;47.10;;;;;;5052193;28;20226;-49
2022/12/06 08:23:39;;;;;;;4.95;2.00;;;23.00;47.00;;;;;;5051925;28;20191;-57
2022/12/06 08:26:13;;;;;;;3.63;1.83;;;23.00;47.10;;;;;;5052017;28;20192;-51
2022/12/06 08:28:44;;;;;;;3.78;1.88;;;23.00;47.10;;;;;;5051898;28;20223;-54
2022/12/06 08:31:17;;;;;;;4.20;1.80;;;23.00;47.10;;;;;;5052203;28;20219;-51
2022/12/06 08:33:48;;;;;;;4.45;1.90;;;22.90;47.10;;;;;;5052280;28;20214;-52
2022/12/06 08:36:20;;;;;;;3.78;1.75;;;22.90;47.20;;;;;;5051725;28;20192;-52
2022/12/06 08:38:50;;;;;;;4.13;2.00;;;22.90;47.20;;;;;;5052348;28;20200;-56
2022/12/06 08:44:14;;;;;;;3.83;1.92;;;22.80;47.20;;;;;;5044894;28;20562;-49
2022/12/06 08:46:45;;;;;;;3.05;1.60;;;22.80;47.10;;;;;;5049702;28;20227;-50
2022/12/06 08:49:24;;;;;;;2.45;1.65;;;22.80;47.20;;;;;;5050255;28;20221;-48
2022/12/06 08:51:56;;;;;;;3.38;1.52;;;22.80;47.10;;;;;;5048835;28;20655;-54
2022/12/06 08:54:27;;;;;;;2.42;1.77;;;22.80;47.10;;;;;;5050685;28;20667;-52
2022/12/06 08:57:00;;;;;;;3.63;1.58;;;22.80;47.10;;;;;;5051427;28;20203;-54
2022/12/06 08:59:30;;;;;;;2.38;1.40;;;22.70;47.10;;;;;;5050899;28;20188;-58
2022/12/06 09:02:01;;;;;;;3.63;2.08;;;22.70;47.10;;;;;;5049595;28;20209;-48
2022/12/06 09:04:32;;;;;;;4.18;1.90;;;22.70;47.20;;;;;;5037345;28;20188;-48
2022/12/06 09:07:03;;;;;;;3.55;1.98;;;22.60;47.10;;;;;;5050711;28;20596;-52
2022/12/06 09:09:33;;;;;;;2.85;1.40;;;22.60;47.10;;;;;;5049431;28;20226;-51
2022/12/06 09:12:06;;;;;;;3.33;1.65;;;22.60;47.20;;;;;;5049514;28;20659;-51
2022/12/06 09:14:37;;;;;;;4.35;1.60;;;22.60;47.20;;;;;;5064535;28;20183;-52
2022/12/06 09:17:08;;;;;;;2.85;1.55;;;22.60;47.20;;;;;;5054046;28;20201;-48
2022/12/06 09:19:39;;;;;;;3.13;1.38;;;22.50;47.10;;;;;;5057292;28;20188;-55
2022/12/06 09:22:10;;;;;;;5.00;1.77;;;22.50;47.20;;;;;;5050888;28;20196;-58
2022/12/06 09:24:40;;;;;;;2.40;1.50;;;22.50;47.20;;;;;;5050423;28;20192;-53
2022/12/06 09:27:13;;;;;;;3.45;1.55;;;22.50;47.10;;;;;;5058325;28;20203;-58
2022/12/06 09:29:44;;;;;;;2.92;1.67;;;22.50;47.10;;;;;;5068568;28;20223;-56
2022/12/06 09:32:15;;;;;;;2.58;1.52;;;22.50;47.10;;;;;;5069916;28;20202;-49
2022/12/06 09:34:46;;;;;;;2.28;1.40;;;22.40;47.10;;;;;;5064043;28;20192;-58
2022/12/06 09:37:17;;;;;;;2.53;1.45;;;22.40;47.80;;;;;;5050611;28;20200;-58
2022/12/06 09:39:50;;;;;;;2.33;1.45;;;22.40;47.20;;;;;;5049937;28;20238;-49
2022/12/06 09:42:48;;;;;;;3.17;1.52;;;22.40;47.20;;;;;;5049477;28;20204;-52
2022/12/06 09:46:04;;;;;;;4.07;1.58;;;22.30;47.10;;;;;;5046676;28;20537;-53
2022/12/06 09:49:08;;;;;;;2.10;1.20;;;22.30;47.80;;;;;;5039135;28;20230;-55
2022/12/06 09:51:57;;;;;;;2.95;1.60;;;22.30;47.20;;;;;;5030845;28;20227;-54
2022/12/06 09:54:43;;;;;;;3.67;1.80;;;22.30;47.30;;;;;;5041072;28;20559;-53
2022/12/06 09:57:20;;;;;;;1.92;1.50;;;22.30;47.20;;;;;;5050131;28;20199;-54
2022/12/06 10:00:03;;;;;;;2.97;1.73;;;22.30;47.30;;;;;;5049823;28;20277;-51
2022/12/06 10:02:51;;;;;;;3.15;1.30;;;22.20;47.20;;;;;;5049951;28;20658;-56
2022/12/06 10:05:42;;;;;;;2.80;1.52;;;22.20;47.20;;;;;;5049530;28;20233;-55
2022/12/06 10:08:26;;;;;;;2.63;1.30;;;22.20;47.20;;;;;;5050420;28;20236;-52
2022/12/06 10:11:00;;;;;;;1.95;1.23;;;22.20;47.20;;;;;;5049287;28;20226;-52
2022/12/06 10:13:45;;;;;;;2.13;1.35;;;22.20;47.20;;;;;;5050184;28;20643;-50
2022/12/06 10:16:27;;;;;;;2.85;1.25;;;22.10;47.20;;;;;;5053651;28;20260;-52
2022/12/06 10:19:13;;;;;;;3.75;1.50;;;22.10;47.20;;;;;;5069935;28;20583;-53
2022/12/06 10:21:55;;;;;;;1.60;1.25;;;22.10;47.30;;;;;;5030050;28;20212;-50
2022/12/06 10:24:42;;;;;;;2.08;1.20;;;22.10;47.30;;;;;;5031580;28;20210;-55
2022/12/06 10:27:16;;;;;;;2.17;1.08;;;22.10;47.30;;;;;;5050157;28;20701;-58
2022/12/06 10:29:56;;;;;;;2.90;1.42;;;22.00;47.30;;;;;;5049021;28;20225;-52
2022/12/06 10:32:45;;;;;;;2.65;1.55;;;22.00;47.30;;;;;;5049254;28;20214;-55
2022/12/06 10:35:21;;;;;;;3.08;1.40;;;22.00;47.30;;;;;;5049428;28;20283;-53
2022/12/06 10:38:04;;;;;;;1.95;1.38;;;22.00;47.30;;;;;;5049040;28;20199;-55
2022/12/06 10:40:44;;;;;;;2.13;1.20;;;22.00;47.30;;;;;;5041052;28;20230;-51
2022/12/06 10:43:21;;;;;;;2.83;1.50;;;22.00;47.30;;;;;;5049477;28;20195;-52
2022/12/06 10:48:49;;;;;;;2.25;1.23;;;22.00;47.30;;;;;;5015982;28;20572;-48
2022/12/06 10:51:24;;;;;;;2.20;1.23;;;21.90;47.30;;;;;;5049202;28;20219;-51
2022/12/06 10:53:59;;;;;;;2.45;1.50;;;21.90;47.30;;;;;;5049340;28;20584;-51
2022/12/06 10:56:34;;;;;;;1.30;1.00;;;21.90;47.30;;;;;;5048947;28;20583;-51
2022/12/06 10:59:11;;;;;;;2.17;1.30;;;21.80;47.30;;;;;;5049043;28;20196;-48
2022/12/06 11:01:45;;;;;;;2.85;1.60;;;21.80;47.30;;;;;;5048807;28;20211;-52
2022/12/06 11:04:25;;;;;;;2.53;1.23;;;21.80;47.30;;;;;;5059711;28;20198;-50
2022/12/06 11:06:58;;;;;;;2.03;1.20;;;21.80;47.40;;;;;;5049525;28;20214;-49
2022/12/06 11:09:37;;;;;;;3.10;1.40;;;21.80;47.40;;;;;;5049661;28;20288;-56
2022/12/06 11:12:21;;;;;;;2.80;1.25;;;21.80;47.40;;;;;;5050099;28;20210;-56
2022/12/06 11:14:54;;;;;;;2.67;1.40;;;21.80;47.30;;;;;;5050278;28;20196;-56
2022/12/06 11:17:27;;;;;;;2.25;1.23;;;21.70;47.30;;;;;;5052853;28;20659;-57
2022/12/06 11:20:05;;;;;;;2.45;1.40;;;21.70;47.20;;;;;;5053585;28;20710;-57
2022/12/06 11:22:42;;;;;;;2.22;1.48;;;21.70;47.20;;;;;;5053317;28;20240;-57
2022/12/06 11:25:20;;;;;;;2.22;1.17;;;21.70;47.30;;;;;;5053195;28;20197;-53
2022/12/06 11:27:54;;;;;;;2.33;1.10;;;21.70;47.30;;;;;;5052785;28;20671;-56
2022/12/06 11:30:25;;;;;;;3.58;1.48;;;21.70;47.30;;;;;;5053479;28;20242;-57
2022/12/06 11:32:55;;;;;;;1.83;1.40;;;21.60;47.30;;;;;;5053368;28;20199;-51
2022/12/06 11:35:30;;;;;;;2.33;1.33;;;21.60;47.30;;;;;;5053191;28;20196;-53
2022/12/06 11:38:04;;;;;;;2.78;1.40;;;21.60;47.30;;;;;;5053293;28;20202;-52
2022/12/06 11:40:36;;;;;;;2.45;1.10;;;21.60;47.30;;;;;;5052937;28;20220;-52
2022/12/06 11:43:10;;;;;;;1.83;1.10;;;21.60;47.40;;;;;;5053205;28;20192;-51
2022/12/06 11:45:44;;;;;;;1.50;1.00;;;21.60;47.40;;;;;;5052890;28;20199;-55
2022/12/06 11:48:18;;;;;;;2.17;1.13;;;21.50;47.30;;;;;;5053285;28;20201;-57
2022/12/06 11:50:52;;;;;;;2.38;1.00;;;21.50;47.30;;;;;;5053349;28;20392;-55
2022/12/06 11:53:28;;;;;;;2.22;1.33;;;21.50;47.30;;;;;;5052625;28;20203;-57
2022/12/06 11:56:02;;;;;;;1.38;1.10;;;21.50;47.40;;;;;;5052857;28;20195;-56
2022/12/06 11:58:41;;;;;;;2.30;1.00;;;21.50;47.30;;;;;;5052631;28;20195;-56
2022/12/06 12:01:14;;;;;;;1.70;1.13;;;21.50;47.30;;;;;;5052668;28;20701;-52
2022/12/06 12:03:46;;;;;;;1.50;1.20;;;21.50;47.30;;;;;;5053145;28;20667;-53
2022/12/06 12:06:23;;;;;;;1.58;1.10;;;21.40;47.30;;;;;;5052901;28;20206;-57
2022/12/06 12:09:03;;;;;;;2.10;1.10;;;21.40;47.30;;;;;;5053236;28;20651;-57
2022/12/06 12:11:36;;;;;;;1.90;1.40;;;21.40;47.30;;;;;;5052694;28;20626;-55
2022/12/06 12:14:15;;;;;;;1.48;1.13;;;21.40;47.30;;;;;;5052530;28;20199;-53
2022/12/06 12:16:49;;;;;;;2.00;1.00;;;21.40;47.40;;;;;;5053076;28;20196;-55
2022/12/06 12:19:32;;;;;;;1.55;1.17;;;21.30;47.30;;;;;;5052644;28;20195;-55
2022/12/06 12:22:18;;;;;;;2.03;1.15;;;21.30;47.30;;;;;;5052442;28;20261;-55
2022/12/06 12:24:55;;;;;;;1.60;1.20;;;21.30;47.40;;;;;;5052223;28;20562;-58
2022/12/06 12:27:56;;;;;;;2.42;1.45;;;21.30;47.40;;;;;;5051592;28;20253;-55
2022/12/06 12:30:35;;;;;;;2.10;1.15;;;21.30;47.40;;;;;;5047511;28;20594;-58
2022/12/06 12:33:20;;;;;;;1.20;0.80;;;21.30;47.30;;;;;;5052219;28;20202;-58
2022/12/06 12:35:53;;;;;;;2.65;1.27;;;21.30;47.40;;;;;;5051888;28;20195;-55
2022/12/06 12:38:33;;;;;;;2.25;1.27;;;21.30;47.90;;;;;;5051414;28;20195;-59
2022/12/06 12:41:11;;;;;;;1.40;1.00;;;21.20;47.30;;;;;;5051827;28;20219;-51
2022/12/06 12:43:47;;;;;;;2.47;1.33;;;21.20;47.30;;;;;;5051349;28;20191;-58
2022/12/06 12:46:22;;;;;;;1.88;1.23;;;21.20;47.30;;;;;;5052027;28;20195;-54
2022/12/06 12:48:53;;;;;;;2.60;1.20;;;21.20;47.30;;;;;;5068434;28;20221;-58
2022/12/06 12:51:33;;;;;;;1.35;1.00;;;21.20;47.30;;;;;;5071783;28;20237;-58
2022/12/06 12:54:07;;;;;;;3.25;1.40;;;21.20;47.30;;;;;;5071692;28;20206;-57
2022/12/06 12:56:39;;;;;;;1.98;1.25;;;21.10;47.30;;;;;;5071828;28;20191;-58
2022/12/06 12:59:17;;;;;;;2.03;1.10;;;21.10;47.30;;;;;;5071761;28;20226;-57
2022/12/06 13:01:51;;;;;;;1.40;1.13;;;21.10;47.40;;;;;;5071577;28;20218;-58
2022/12/06 13:04:33;;;;;;;1.08;0.82;;;21.10;47.30;;;;;;5071630;28;20277;-55
2022/12/06 13:07:06;;;;;;;1.50;1.05;;;21.10;47.30;;;;;;5071798;28;20669;-57
2022/12/06 13:09:45;;;;;;;3.33;1.23;;;21.10;47.30;;;;;;5056505;28;20222;-55
2022/12/06 13:12:22;;;;;;;1.02;0.90;;;21.10;47.40;;;;;;5050094;28;20214;-57
2022/12/06 13:14:57;;;;;;;1.30;0.98;;;21.10;47.40;;;;;;5051370;28;20202;-58
2022/12/06 13:17:31;;;;;;;1.75;1.02;;;21.10;47.30;;;;;;5051729;28;20669;-55
2022/12/06 13:20:02;;;;;;;2.08;1.00;;;21.10;47.30;;;;;;5051550;28;20225;-58
2022/12/06 13:22:43;;;;;;;1.83;1.00;;;21.10;47.30;;;;;;5050918;28;20211;-57
2022/12/06 13:25:17;;;;;;;3.05;1.00;;;21.10;47.20;;;;;;5050867;28;20202;-58
2022/12/06 13:27:52;;;;;;;1.60;1.10;;;21.10;47.20;;;;;;5050726;28;20562;-55
2022/12/06 13:30:24;;;;;;;1.45;0.98;;;21.00;47.20;;;;;;5050469;28;20250;-58
2022/12/06 13:32:58;;;;;;;3.25;1.00;;;21.00;47.30;;;;;;5050106;28;20588;-58
2022/12/06 13:35:32;;;;;;;1.45;0.95;;;21.00;47.30;;;;;;5052684;28;20210;-56
2022/12/06 13:38:03;;;;;;;1.88;1.20;;;21.00;47.90;;;;;;5070334;28;20191;-58
2022/12/06 13:40:57;;;;;;;1.85;0.98;;;21.00;47.40;;;;;;5065463;28;20219;-58
2022/12/06 13:44:00;;;;;;;1.73;1.15;;;21.00;47.40;;;;;;5048724;28;20207;-58
2022/12/06 13:46:34;;;;;;;2.00;1.20;;;20.90;47.30;;;;;;5050925;28;20209;-56
2022/12/06 13:49:26;;;;;;;2.38;0.90;;;20.90;47.30;;;;;;5050975;28;20199;-58
2022/12/06 13:51:57;;;;;;;1.58;1.08;;;20.90;47.30;;;;;;5051293;28;20235;-58
2022/12/06 13:54:36;;;;;;;2.05;1.00;;;20.90;47.30;;;;;;5051107;28;20199;-57